createdAt,value
2022-09-04T00:02:26.560Z,1.30
2022-09-04T00:05:11.095Z,1.50
2022-09-04T00:07:48.513Z,1.55
2022-09-04T00:10:36.389Z,1.35
2022-09-04T00:13:12.369Z,1.50
2022-09-04T00:15:48.190Z,1.60
2022-09-04T00:18:23.440Z,1.40
2022-09-04T00:20:57.652Z,1.38
2022-09-04T00:23:44.924Z,1.25
2022-09-04T00:26:21.133Z,1.50
2022-09-04T00:28:51.146Z,1.58
2022-09-04T00:31:34.005Z,1.40
2022-09-04T00:34:19.397Z,1.60
2022-09-04T00:36:51.326Z,1.50
2022-09-04T00:39:25.530Z,1.67
2022-09-04T00:42:08.857Z,1.60
2022-09-04T00:45:11.984Z,1.33
2022-09-04T00:48:21.617Z,1.60
2022-09-04T00:51:11.718Z,1.52
2022-09-04T00:53:51.029Z,1.40
2022-09-04T00:56:52.346Z,1.80
2022-09-04T00:59:55.544Z,1.58
2022-09-04T01:02:43.590Z,1.15
2022-09-04T01:05:47.939Z,1.23
2022-09-04T01:08:16.742Z,1.30
2022-09-04T01:10:58.057Z,1.30
2022-09-04T01:13:27.320Z,1.35
2022-09-04T01:16:13.326Z,1.20
2022-09-04T01:18:53.677Z,1.50
2022-09-04T01:21:35.359Z,1.27
2022-09-04T01:24:29.275Z,1.33
2022-09-04T01:27:04.778Z,1.50
2022-09-04T01:29:50.187Z,1.42
2022-09-04T01:32:31.533Z,1.85
2022-09-04T01:35:12.933Z,2.40
2022-09-04T01:37:52.440Z,2.72
2022-09-04T01:43:08.420Z,3.50
2022-09-04T01:45:55.480Z,3.83
2022-09-04T01:48:49.595Z,4.50
2022-09-04T01:51:37.787Z,3.95
2022-09-04T01:54:28.935Z,3.80
2022-09-04T01:57:14.178Z,2.90
2022-09-04T01:59:55.932Z,3.03
2022-09-04T02:02:32.241Z,3.38
2022-09-04T02:05:08.570Z,2.45
2022-09-04T02:08:29.822Z,2.40
2022-09-04T02:11:05.059Z,1.75
2022-09-04T02:13:46.601Z,1.73
2022-09-04T02:16:26.503Z,1.73
2022-09-04T02:19:24.141Z,1.80
2022-09-04T02:22:01.695Z,1.40
2022-09-04T02:24:44.137Z,1.73
2022-09-04T02:27:29.793Z,1.70
2022-09-04T02:30:04.114Z,1.88
2022-09-04T02:32:37.846Z,1.90
2022-09-04T02:35:26.723Z,2.22
2022-09-04T02:38:17.471Z,2.50
2022-09-04T02:40:51.758Z,3.72
2022-09-04T02:43:35.523Z,2.97
2022-09-04T02:46:37.369Z,3.50
2022-09-04T02:49:24.851Z,2.95
2022-09-04T02:52:09.200Z,3.10
2022-09-04T02:54:49.223Z,2.45
2022-09-04T02:57:56.540Z,2.00
2022-09-04T03:00:39.430Z,1.90
2022-09-04T03:03:18.748Z,1.67
2022-09-04T03:06:06.890Z,1.90
2022-09-04T03:08:43.409Z,2.03
2022-09-04T03:11:35.858Z,1.50
2022-09-04T03:14:24.596Z,1.98
2022-09-04T03:17:11.962Z,1.80
2022-09-04T03:20:16.835Z,1.38
2022-09-04T03:23:01.610Z,1.60
2022-09-04T03:26:12.761Z,1.70
2022-09-04T03:28:54.658Z,1.70
2022-09-04T03:31:24.092Z,1.75
2022-09-04T03:34:14.188Z,1.63
2022-09-04T03:36:58.866Z,1.48
2022-09-04T03:39:28.374Z,1.70
2022-09-04T03:45:24.522Z,1.52
2022-09-04T03:48:17.582Z,1.60
2022-09-04T03:50:58.949Z,1.90
2022-09-04T03:53:43.539Z,2.28
2022-09-04T03:56:31.674Z,1.60
2022-09-04T03:59:04.839Z,1.63
2022-09-04T04:01:55.105Z,1.63
2022-09-04T04:04:52.654Z,1.40
2022-09-04T04:07:19.815Z,1.33
2022-09-04T04:10:03.331Z,1.60
2022-09-04T04:13:15.101Z,1.55
2022-09-04T04:15:55.880Z,1.75
2022-09-04T04:18:31.581Z,1.75
2022-09-04T04:21:01.055Z,2.00
2022-09-04T04:24:03.069Z,1.80
2022-09-04T04:26:41.640Z,1.73
2022-09-04T04:29:37.904Z,1.98
2022-09-04T04:32:31.563Z,1.58
2022-09-04T04:35:08.433Z,1.70
2022-09-04T04:37:56.213Z,1.63
2022-09-04T04:40:34.706Z,1.83
2022-09-04T04:43:14.020Z,1.90
2022-09-04T04:46:02.279Z,1.75
2022-09-04T04:49:04.571Z,1.85
2022-09-04T04:51:40.794Z,1.90
2022-09-04T04:54:29.996Z,2.03
2022-09-04T04:57:21.015Z,2.10
2022-09-04T05:00:07.605Z,2.22
2022-09-04T05:02:53.188Z,1.98
2022-09-04T05:05:47.281Z,2.08
2022-09-04T05:08:50.899Z,2.15
2022-09-04T05:11:45.406Z,2.70
2022-09-04T05:14:36.901Z,2.22
2022-09-04T05:17:11.733Z,2.55
2022-09-04T05:20:15.961Z,2.08
2022-09-04T05:23:17.476Z,2.97
2022-09-04T05:25:58.567Z,2.45
2022-09-04T05:28:55.997Z,2.30
2022-09-04T05:31:32.545Z,2.35
2022-09-04T05:34:11.209Z,2.00
2022-09-04T05:36:40.354Z,2.03
2022-09-04T05:39:18.868Z,1.65
2022-09-04T05:42:30.589Z,1.55
2022-09-04T05:45:35.861Z,1.52
2022-09-04T05:48:14.862Z,2.00
2022-09-04T05:51:18.605Z,1.75
2022-09-04T05:53:56.217Z,2.03
2022-09-04T05:56:44.097Z,1.85
2022-09-04T05:59:35.168Z,1.77
2022-09-04T06:02:07.674Z,1.90
2022-09-04T06:04:53.005Z,1.88
2022-09-04T06:07:50.620Z,1.85
2022-09-04T06:10:25.978Z,1.50
2022-09-04T06:13:37.603Z,1.60
2022-09-04T06:16:04.024Z,1.75
2022-09-04T06:18:30.479Z,1.90
2022-09-04T06:21:24.603Z,1.80
2022-09-04T06:24:12.953Z,1.95
2022-09-04T06:27:18.993Z,1.95
2022-09-04T06:30:08.846Z,1.90
2022-09-04T06:32:38.294Z,1.63
2022-09-04T06:35:32.974Z,2.20
2022-09-04T06:38:41.665Z,1.67
2022-09-04T06:41:11.148Z,1.80
2022-09-04T06:46:13.729Z,1.67
2022-09-04T06:49:16.273Z,1.75
2022-09-04T06:51:48.736Z,1.60
2022-09-04T06:54:19.684Z,2.10
2022-09-04T06:57:13.979Z,2.40
2022-09-04T06:59:40.421Z,1.70
2022-09-04T07:02:21.974Z,2.20
2022-09-04T07:05:14.783Z,1.65
2022-09-04T07:08:08.215Z,2.28
2022-09-04T07:10:41.391Z,1.88
2022-09-04T07:13:26.457Z,2.60
2022-09-04T07:16:07.774Z,2.63
2022-09-04T07:19:07.791Z,1.63
2022-09-04T07:21:58.928Z,1.65
2022-09-04T07:25:00.753Z,1.77
2022-09-04T07:27:43.741Z,1.95
2022-09-04T07:30:13.766Z,2.00
2022-09-04T07:32:59.337Z,1.80
2022-09-04T07:35:48.623Z,1.48
2022-09-04T07:38:27.612Z,1.90
2022-09-04T07:41:10.540Z,1.80
2022-09-04T07:43:54.618Z,1.63
2022-09-04T07:46:51.760Z,2.00
2022-09-04T07:49:51.544Z,2.15
2022-09-04T07:53:03.280Z,2.30
2022-09-04T07:55:50.831Z,1.75
2022-09-04T07:58:50.427Z,1.80
2022-09-04T08:01:28.934Z,2.30
2022-09-04T08:03:58.211Z,1.70
2022-09-04T08:06:33.656Z,1.83
2022-09-04T08:09:36.839Z,1.98
2022-09-04T08:12:26.274Z,1.92
2022-09-04T08:17:25.501Z,1.80
2022-09-04T08:20:12.650Z,2.05
2022-09-04T08:22:57.578Z,2.00
2022-09-04T08:25:51.574Z,2.20
2022-09-04T08:28:46.579Z,1.80
2022-09-04T08:31:36.727Z,1.70
2022-09-04T08:34:28.389Z,2.10
2022-09-04T08:37:20.820Z,2.00
2022-09-04T08:40:46.606Z,1.98
2022-09-04T08:46:31.740Z,2.10
2022-09-04T08:49:13.199Z,2.00
2022-09-04T08:52:07.079Z,2.00
2022-09-04T08:55:00.680Z,1.83
2022-09-04T08:57:48.496Z,1.95
2022-09-04T09:00:36.343Z,2.08
2022-09-04T09:03:36.083Z,2.40
2022-09-04T09:06:39.713Z,2.00
2022-09-04T09:09:27.984Z,1.83
2022-09-04T09:12:15.668Z,2.15
2022-09-04T09:15:04.110Z,2.10
2022-09-04T09:17:39.285Z,2.10
2022-09-04T09:20:48.872Z,1.90
2022-09-04T09:23:29.881Z,1.98
2022-09-04T09:26:18.316Z,2.13
2022-09-04T09:28:50.790Z,1.97
2022-09-04T09:31:39.204Z,2.15
2022-09-04T09:34:18.984Z,1.80
2022-09-04T09:37:20.459Z,1.80
2022-09-04T09:40:24.763Z,2.10
2022-09-04T09:43:01.891Z,2.20
2022-09-04T09:45:53.557Z,2.00
2022-09-04T09:48:49.411Z,2.08
2022-09-04T09:51:45.135Z,2.40
2022-09-04T09:54:28.303Z,1.98
2022-09-04T09:57:21.177Z,1.90
2022-09-04T10:00:10.740Z,2.03
2022-09-04T10:03:01.719Z,2.05
2022-09-04T10:05:46.543Z,2.22
2022-09-04T10:08:13.030Z,2.00
2022-09-04T10:11:10.288Z,1.70
2022-09-04T10:13:49.251Z,2.17
2022-09-04T10:16:34.986Z,2.22
2022-09-04T10:19:46.439Z,2.17
2022-09-04T10:22:51.519Z,2.28
2022-09-04T10:25:37.040Z,2.30
2022-09-04T10:28:09.449Z,2.00
2022-09-04T10:30:53.159Z,1.88
2022-09-04T10:34:01.665Z,1.83
2022-09-04T10:36:37.857Z,2.08
2022-09-04T10:39:32.943Z,2.08
2022-09-04T10:42:35.021Z,1.80
2022-09-04T10:45:20.150Z,1.60
2022-09-04T10:47:55.784Z,1.90
2022-09-04T10:51:04.191Z,1.52
2022-09-04T10:53:52.771Z,1.30
2022-09-04T10:56:28.866Z,2.13
2022-09-04T10:59:27.757Z,1.80
2022-09-04T11:02:15.463Z,1.63
2022-09-04T11:05:15.676Z,1.65
2022-09-04T11:07:52.329Z,1.60
2022-09-04T11:10:31.651Z,1.63
2022-09-04T11:13:17.005Z,1.50
2022-09-04T11:15:50.320Z,1.50
2022-09-04T11:18:45.449Z,1.52
2022-09-04T11:21:49.448Z,1.40
2022-09-04T11:24:47.206Z,1.45
2022-09-04T11:27:32.367Z,1.40
2022-09-04T11:30:05.345Z,1.48
2022-09-04T11:33:14.197Z,1.38
2022-09-04T11:39:06.183Z,1.23
2022-09-04T11:42:27.669Z,1.45
2022-09-04T11:45:17.207Z,1.60
2022-09-04T11:47:52.721Z,1.40
2022-09-04T11:50:28.185Z,1.10
2022-09-04T11:53:12.759Z,1.30
2022-09-04T11:55:52.536Z,1.17
2022-09-04T11:58:22.294Z,1.30
2022-09-04T12:01:10.398Z,1.35
2022-09-04T12:03:49.734Z,1.20
2022-09-04T12:06:49.438Z,1.13
2022-09-04T12:09:31.935Z,1.20
2022-09-04T12:12:34.411Z,1.35
2022-09-04T12:15:22.185Z,1.17
2022-09-04T12:18:47.233Z,1.35
2022-09-04T12:21:37.768Z,1.42
2022-09-04T12:24:34.940Z,1.33
2022-09-04T12:27:32.109Z,1.83
2022-09-04T12:30:07.927Z,1.60
2022-09-04T12:33:08.539Z,1.25
2022-09-04T12:35:52.346Z,1.70
2022-09-04T12:38:55.833Z,1.48
2022-09-04T12:41:39.779Z,1.23
2022-09-04T12:44:34.393Z,1.45
2022-09-04T12:47:33.089Z,1.52
2022-09-04T12:50:28.333Z,1.50
2022-09-04T12:53:09.727Z,1.45
2022-09-04T12:55:45.618Z,1.42
2022-09-04T12:58:50.320Z,1.27
2022-09-04T13:01:33.381Z,3.28
2022-09-04T13:04:11.798Z,1.30
2022-09-04T13:06:44.264Z,1.30
2022-09-04T13:09:25.780Z,1.30
2022-09-04T13:12:17.107Z,1.33
2022-09-04T13:15:03.190Z,1.20
2022-09-04T13:17:52.942Z,1.10
2022-09-04T13:20:35.253Z,1.30
2022-09-04T13:23:07.684Z,1.10
2022-09-04T13:25:55.785Z,1.40
2022-09-04T13:28:37.901Z,1.35
2022-09-04T13:31:43.738Z,1.20
2022-09-04T13:34:20.873Z,1.00
2022-09-04T13:37:17.223Z,1.30
2022-09-04T13:40:12.388Z,1.90
2022-09-04T13:42:57.187Z,1.58
2022-09-04T13:45:26.729Z,1.70
2022-09-04T13:48:00.503Z,1.30
2022-09-04T13:50:32.126Z,1.15
2022-09-04T13:53:16.671Z,1.08
2022-09-04T13:55:54.300Z,1.27
2022-09-04T13:58:28.116Z,1.15
2022-09-04T14:01:01.362Z,1.30
2022-09-04T14:03:39.996Z,1.35
2022-09-04T14:06:10.193Z,1.15
2022-09-04T14:08:39.806Z,1.35
2022-09-04T14:11:18.141Z,1.10
2022-09-04T14:13:51.509Z,1.13
2022-09-04T14:16:18.981Z,1.20
2022-09-04T14:19:00.419Z,1.20
2022-09-04T14:21:45.731Z,1.00
2022-09-04T14:24:22.957Z,1.02
2022-09-04T14:27:16.700Z,1.10
2022-09-04T14:30:07.528Z,1.20
2022-09-04T14:32:47.651Z,1.15
2022-09-04T14:35:27.820Z,0.95
2022-09-04T14:38:10.077Z,1.10
2022-09-04T14:40:43.673Z,1.10
2022-09-04T14:43:10.073Z,1.10
2022-09-04T14:45:55.364Z,1.40
2022-09-04T14:48:24.164Z,1.42
2022-09-04T14:53:31.778Z,1.10
2022-09-04T14:56:20.268Z,1.00
2022-09-04T14:59:17.462Z,1.00
2022-09-04T15:02:08.713Z,1.10
2022-09-04T15:04:48.378Z,1.25
2022-09-04T15:07:24.770Z,1.20
2022-09-04T15:09:54.710Z,1.08
2022-09-04T15:12:34.354Z,1.20
2022-09-04T15:15:14.353Z,1.17
2022-09-04T15:17:50.354Z,1.10
2022-09-04T15:20:28.282Z,1.30
2022-09-04T15:23:19.898Z,1.00
2022-09-04T15:25:59.091Z,0.90
2022-09-04T15:28:43.627Z,1.00
2022-09-04T15:31:16.446Z,0.93
2022-09-04T15:33:45.676Z,1.10
2022-09-04T15:36:23.831Z,1.15
2022-09-04T15:38:59.864Z,0.87
2022-09-04T15:41:38.998Z,1.20
2022-09-04T15:44:19.402Z,1.00
2022-09-04T15:46:51.178Z,1.20
2022-09-04T15:49:32.915Z,1.30
2022-09-04T15:52:12.610Z,1.20
2022-09-04T15:54:41.854Z,1.17
2022-09-04T15:57:32.042Z,0.90
2022-09-04T16:00:09.373Z,0.98
2022-09-04T16:02:51.463Z,0.93
2022-09-04T16:05:27.274Z,1.08
2022-09-04T16:08:03.646Z,1.20
2022-09-04T16:10:41.781Z,1.10
2022-09-04T16:13:31.347Z,1.00
2022-09-04T16:16:30.784Z,0.98
2022-09-04T16:19:06.598Z,1.13
2022-09-04T16:21:40.819Z,1.00
2022-09-04T16:24:15.212Z,1.30
2022-09-04T16:26:50.411Z,1.50
2022-09-04T16:29:26.524Z,1.30
2022-09-04T16:31:57.562Z,1.20
2022-09-04T16:34:33.125Z,1.00
2022-09-04T16:37:22.524Z,1.20
2022-09-04T16:40:05.122Z,1.00
2022-09-04T16:42:40.936Z,1.10
2022-09-04T16:45:37.266Z,1.10
2022-09-04T16:48:34.922Z,1.20
2022-09-04T16:51:41.903Z,1.20
2022-09-04T16:54:37.203Z,1.50
2022-09-04T16:57:15.570Z,0.93
2022-09-04T16:59:48.464Z,1.40
2022-09-04T17:02:46.940Z,1.00
2022-09-04T17:05:27.890Z,1.25
2022-09-04T17:08:02.048Z,1.50
2022-09-04T17:10:41.285Z,2.30
2022-09-04T17:13:16.800Z,1.90
2022-09-04T17:15:57.965Z,1.77
2022-09-04T17:18:28.781Z,1.30
2022-09-04T17:27:00.356Z,1.60
2022-09-04T17:29:15.228Z,1.38
2022-09-04T17:29:17.546Z,1.65
2022-09-04T17:30:55.610Z,1.20
2022-09-04T17:40:06.247Z,1.25
2022-09-04T17:40:36.003Z,1.25
2022-09-04T17:40:56.106Z,1.10
2022-09-04T17:42:57.067Z,1.35
2022-09-04T17:45:45.989Z,1.25
2022-09-04T17:48:25.003Z,1.30
2022-09-04T17:50:57.185Z,1.00
2022-09-04T17:53:34.359Z,1.10
2022-09-04T17:56:07.157Z,0.88
2022-09-04T17:58:42.519Z,1.10
2022-09-04T18:01:19.966Z,1.13
2022-09-04T18:04:22.864Z,1.00
2022-09-04T18:07:33.671Z,1.10
2022-09-04T18:10:03.393Z,0.95
2022-09-04T18:12:38.709Z,1.47
2022-09-04T18:15:33.429Z,0.88
2022-09-04T18:18:12.161Z,1.10
2022-09-04T18:20:51.717Z,1.10
2022-09-04T18:23:50.867Z,1.33
2022-09-04T18:26:25.605Z,1.08
2022-09-04T18:30:57.270Z,0.93
2022-09-04T18:37:12.713Z,1.08
2022-09-04T18:37:20.115Z,1.10
2022-09-04T18:39:08.185Z,1.15
2022-09-04T18:48:17.353Z,1.13
2022-09-04T18:50:30.794Z,1.20
2022-09-04T18:50:40.367Z,1.00
2022-09-04T18:56:26.465Z,1.08
2022-09-04T18:59:19.224Z,1.20
2022-09-04T19:02:14.544Z,1.20
2022-09-04T19:04:51.800Z,1.20
2022-09-04T19:07:31.686Z,1.40
2022-09-04T19:10:25.740Z,1.42
2022-09-04T19:12:53.749Z,1.20
2022-09-04T19:15:50.448Z,1.20
2022-09-04T19:18:43.613Z,1.30
2022-09-04T19:21:10.727Z,1.00
2022-09-04T19:23:53.392Z,1.38
2022-09-04T19:26:26.222Z,1.50
2022-09-04T19:29:12.214Z,1.33
2022-09-04T19:31:48.830Z,1.10
2022-09-04T19:34:33.571Z,1.30
2022-09-04T19:37:44.789Z,1.40
2022-09-04T19:46:02.152Z,1.60
2022-09-04T19:46:08.069Z,1.40
2022-09-04T19:52:05.007Z,1.30
2022-09-04T19:53:30.005Z,1.50
2022-09-04T19:55:24.332Z,1.25
2022-09-04T19:58:04.802Z,1.50
2022-09-04T20:00:43.944Z,1.38
2022-09-04T20:03:48.569Z,1.35
2022-09-04T20:06:27.037Z,1.45
2022-09-04T20:09:02.715Z,1.38
2022-09-04T20:11:46.381Z,1.50
2022-09-04T20:14:27.689Z,1.40
2022-09-04T20:17:01.180Z,1.73
2022-09-04T20:19:43.129Z,1.65
2022-09-04T20:22:31.259Z,1.30
2022-09-04T20:25:06.712Z,1.52
2022-09-04T20:27:36.702Z,1.65
2022-09-04T20:30:16.602Z,1.48
2022-09-04T20:32:56.544Z,1.42
2022-09-04T20:36:15.788Z,1.42
2022-09-04T20:41:32.999Z,1.30
2022-09-04T20:48:12.597Z,1.58
2022-09-04T20:52:42.143Z,1.40
2022-09-04T20:53:06.250Z,1.30
2022-09-04T20:54:28.583Z,1.58
2022-09-04T21:01:38.593Z,1.35
2022-09-04T21:03:21.876Z,1.48
2022-09-04T21:06:07.333Z,1.60
2022-09-04T21:08:52.407Z,1.40
2022-09-04T21:11:40.702Z,1.58
2022-09-04T21:14:18.655Z,2.05
2022-09-04T21:16:53.967Z,1.73
2022-09-04T21:20:10.882Z,1.70
2022-09-04T21:22:55.421Z,1.60
2022-09-04T21:25:21.839Z,1.70
2022-09-04T21:28:28.831Z,1.40
2022-09-04T21:31:31.046Z,1.75
2022-09-04T21:34:25.383Z,1.70
2022-09-04T21:37:08.587Z,1.60
2022-09-04T21:39:47.033Z,1.58
2022-09-04T21:42:19.192Z,1.60
2022-09-04T21:45:13.394Z,1.67
2022-09-04T21:47:59.596Z,1.80
2022-09-04T21:50:30.412Z,1.60
2022-09-04T21:53:24.985Z,2.25
2022-09-04T22:02:26.845Z,2.08
2022-09-04T22:02:40.141Z,2.13
2022-09-04T22:02:51.531Z,2.05
2022-09-04T22:05:51.429Z,1.50
2022-09-04T22:13:26.468Z,1.60
2022-09-04T22:14:25.400Z,1.80
2022-09-04T22:17:13.167Z,1.98
2022-09-04T22:20:04.406Z,1.60
2022-09-04T22:22:46.150Z,1.63
2022-09-04T22:25:41.268Z,1.83
2022-09-04T22:28:30.027Z,1.63
2022-09-04T22:31:22.419Z,2.00
2022-09-04T22:34:22.234Z,2.10
2022-09-04T22:37:09.973Z,2.05
2022-09-04T22:40:14.048Z,2.40
2022-09-04T22:42:52.058Z,2.17
2022-09-04T22:45:18.472Z,2.20
2022-09-04T22:48:03.759Z,2.15
2022-09-04T22:51:06.081Z,2.30
2022-09-04T22:53:47.532Z,2.30
2022-09-04T22:56:25.474Z,2.10
2022-09-04T22:59:37.211Z,2.08
2022-09-04T23:03:04.250Z,1.92
2022-09-04T23:05:28.419Z,1.90
2022-09-04T23:12:30.272Z,2.30
2022-09-04T23:14:00.478Z,2.30
2022-09-04T23:14:39.217Z,1.77
2022-09-04T23:17:32.594Z,2.00
2022-09-04T23:26:39.420Z,2.13
2022-09-04T23:26:46.044Z,2.13
2022-09-04T23:26:59.457Z,2.40
2022-09-04T23:29:49.329Z,2.28
2022-09-04T23:32:39.600Z,2.17
2022-09-04T23:35:15.581Z,2.20
2022-09-04T23:38:00.074Z,2.10
2022-09-04T23:40:34.611Z,2.25
2022-09-04T23:43:33.403Z,1.95
2022-09-04T23:46:38.607Z,2.97
2022-09-04T23:49:32.049Z,2.13
2022-09-04T23:52:07.865Z,2.28
2022-09-04T23:54:55.490Z,2.30
2022-09-04T23:57:29.036Z,2.55
